USTRANSCOM 7581


KWRI
Joint Base McGuire Dix Lakehurst
Wrightstown, New Jersey, US
EGUN
RAF Mildenhall
Mildenhall, , GB

Route Details

Aircraft Information
Primary: Boeing 767-300BDSF
Backup: Boeing 757-200SF
Route Data
Distance: 3069nm
Sched. Duration: 6h 40m
Avg. Duration: 1h 39m (-500m)
Times Flown: 1
Recm'd Route: Not Available
Planned Altitude: 31,000ft
Origin Wx:
Dest. Wx: EGUN 240756Z AUTO 14004KT 9999 CLR M03/M03 A2946 RMK AO2 SLP980 T10291029 FZRANO
Notes: USTRANSCOM CONTRACT FLIGHT

Financial History
Total Freight: 89,740lbs
Average Load: 89,740lbs/flt
Fuel Used: 23,511lbs
Avg. Fuel Used: 23,511lbs/flt
Fuel Expense: $23,276
Avg. Fuel Expense: $23,276
Avg. Fuel Cost: $0.99/lbs
Total Gross Income: $190,249
Pilot Pay: $259
Total Expenses: $20,599
Total Revenue: $146,011
Average Revenue: $190,248.80